sensor_id;sensor_type;location;lat;lon;timestamp;pressure;altitude;pressure_sealevel;temperature
15680;BMP180;15488;48.114;11.532;2023-02-15T00:02:04;96618.00;;;9.60
15680;BMP180;15488;48.114;11.532;2023-02-15T00:04:33;96620.00;;;9.60
15680;BMP180;15488;48.114;11.532;2023-02-15T00:07:17;96618.00;;;9.60
15680;BMP180;15488;48.114;11.532;2023-02-15T00:09:45;96620.00;;;9.60
15680;BMP180;15488;48.114;11.532;2023-02-15T00:12:14;96618.00;;;9.60
15680;BMP180;15488;48.114;11.532;2023-02-15T00:14:42;96612.00;;;9.60
15680;BMP180;15488;48.114;11.532;2023-02-15T00:17:10;96615.00;;;9.60
15680;BMP180;15488;48.114;11.532;2023-02-15T00:19:39;96617.00;;;9.60
15680;BMP180;15488;48.114;11.532;2023-02-15T00:22:07;96607.00;;;9.60
15680;BMP180;15488;48.114;11.532;2023-02-15T00:24:35;96606.00;;;9.60
15680;BMP180;15488;48.114;11.532;2023-02-15T00:27:02;96606.00;;;9.50
15680;BMP180;15488;48.114;11.532;2023-02-15T00:29:30;96611.00;;;9.60
15680;BMP180;15488;48.114;11.532;2023-02-15T00:31:57;96600.00;;;9.50
15680;BMP180;15488;48.114;11.532;2023-02-15T00:34:26;96606.00;;;9.50
15680;BMP180;15488;48.114;11.532;2023-02-15T00:36:55;96615.00;;;9.40
15680;BMP180;15488;48.114;11.532;2023-02-15T00:39:23;96611.00;;;9.50
15680;BMP180;15488;48.114;11.532;2023-02-15T00:41:51;96614.00;;;9.40
15680;BMP180;15488;48.114;11.532;2023-02-15T00:44:19;96613.00;;;9.40
15680;BMP180;15488;48.114;11.532;2023-02-15T00:46:46;96600.00;;;9.40
15680;BMP180;15488;48.114;11.532;2023-02-15T00:49:14;96593.00;;;9.30
15680;BMP180;15488;48.114;11.532;2023-02-15T00:51:41;96596.00;;;9.30
15680;BMP180;15488;48.114;11.532;2023-02-15T00:54:10;96591.00;;;9.30
15680;BMP180;15488;48.114;11.532;2023-02-15T00:56:37;96595.00;;;9.30
15680;BMP180;15488;48.114;11.532;2023-02-15T00:59:05;96587.00;;;9.20
15680;BMP180;15488;48.114;11.532;2023-02-15T01:01:32;96590.00;;;9.20
15680;BMP180;15488;48.114;11.532;2023-02-15T01:03:59;96586.00;;;9.20
15680;BMP180;15488;48.114;11.532;2023-02-15T01:06:27;96590.00;;;9.10
15680;BMP180;15488;48.114;11.532;2023-02-15T01:08:54;96580.00;;;9.10
15680;BMP180;15488;48.114;11.532;2023-02-15T01:11:23;96577.00;;;9.10
15680;BMP180;15488;48.114;11.532;2023-02-15T01:13:52;96574.00;;;9.10
15680;BMP180;15488;48.114;11.532;2023-02-15T01:16:20;96566.00;;;9.00
15680;BMP180;15488;48.114;11.532;2023-02-15T01:18:48;96566.00;;;9.00
15680;BMP180;15488;48.114;11.532;2023-02-15T01:21:19;96562.00;;;8.90
15680;BMP180;15488;48.114;11.532;2023-02-15T01:23:47;96560.00;;;8.90
15680;BMP180;15488;48.114;11.532;2023-02-15T01:26:15;96560.00;;;8.90
15680;BMP180;15488;48.114;11.532;2023-02-15T01:28:44;96565.00;;;8.90
15680;BMP180;15488;48.114;11.532;2023-02-15T01:31:14;96566.00;;;8.90
15680;BMP180;15488;48.114;11.532;2023-02-15T01:33:42;96565.00;;;8.90
15680;BMP180;15488;48.114;11.532;2023-02-15T01:36:09;96558.00;;;8.60
15680;BMP180;15488;48.114;11.532;2023-02-15T01:38:37;96561.00;;;8.90
15680;BMP180;15488;48.114;11.532;2023-02-15T01:41:06;96555.00;;;8.90
15680;BMP180;15488;48.114;11.532;2023-02-15T01:43:53;96558.00;;;8.90
15680;BMP180;15488;48.114;11.532;2023-02-15T01:46:24;96549.00;;;8.80
15680;BMP180;15488;48.114;11.532;2023-02-15T01:48:55;96548.00;;;8.80
15680;BMP180;15488;48.114;11.532;2023-02-15T01:51:27;96549.00;;;8.80
15680;BMP180;15488;48.114;11.532;2023-02-15T01:54:00;96545.00;;;8.70
15680;BMP180;15488;48.114;11.532;2023-02-15T01:56:31;96542.00;;;8.70
15680;BMP180;15488;48.114;11.532;2023-02-15T01:59:05;96547.00;;;8.70
15680;BMP180;15488;48.114;11.532;2023-02-15T02:01:34;96547.00;;;8.70
15680;BMP180;15488;48.114;11.532;2023-02-15T02:04:09;96468.00;;;8.70
15680;BMP180;15488;48.114;11.532;2023-02-15T02:06:42;96542.00;;;8.70
15680;BMP180;15488;48.114;11.532;2023-02-15T02:09:11;96540.00;;;8.70
15680;BMP180;15488;48.114;11.532;2023-02-15T02:11:39;96536.00;;;8.70
15680;BMP180;15488;48.114;11.532;2023-02-15T02:14:08;96526.00;;;8.60
15680;BMP180;15488;48.114;11.532;2023-02-15T02:16:42;96533.00;;;8.60
15680;BMP180;15488;48.114;11.532;2023-02-15T02:19:41;96520.00;;;8.60
15680;BMP180;15488;48.114;11.532;2023-02-15T02:22:40;96526.00;;;8.60
15680;BMP180;15488;48.114;11.532;2023-02-15T02:26:00;96518.00;;;8.60
15680;BMP180;15488;48.114;11.532;2023-02-15T02:29:03;96528.00;;;8.60
15680;BMP180;15488;48.114;11.532;2023-02-15T02:31:48;96532.00;;;8.60
15680;BMP180;15488;48.114;11.532;2023-02-15T02:34:27;96533.00;;;8.50
15680;BMP180;15488;48.114;11.532;2023-02-15T02:37:00;96531.00;;;8.60
15680;BMP180;15488;48.114;11.532;2023-02-15T02:39:37;96524.00;;;8.50
15680;BMP180;15488;48.114;11.532;2023-02-15T02:42:09;96521.00;;;8.50
15680;BMP180;15488;48.114;11.532;2023-02-15T02:44:43;96522.00;;;8.50
15680;BMP180;15488;48.114;11.532;2023-02-15T02:47:14;96529.00;;;8.50
15680;BMP180;15488;48.114;11.532;2023-02-15T02:49:44;96515.00;;;8.50
15680;BMP180;15488;48.114;11.532;2023-02-15T02:52:34;96521.00;;;8.50
15680;BMP180;15488;48.114;11.532;2023-02-15T02:55:02;96523.00;;;8.50
15680;BMP180;15488;48.114;11.532;2023-02-15T02:57:32;96519.00;;;8.50
15680;BMP180;15488;48.114;11.532;2023-02-15T03:00:03;96519.00;;;8.50
15680;BMP180;15488;48.114;11.532;2023-02-15T03:02:37;96519.00;;;8.50
15680;BMP180;15488;48.114;11.532;2023-02-15T03:05:12;96524.00;;;8.50
15680;BMP180;15488;48.114;11.532;2023-02-15T03:07:42;96520.00;;;8.50
15680;BMP180;15488;48.114;11.532;2023-02-15T03:10:13;96522.00;;;8.50
15680;BMP180;15488;48.114;11.532;2023-02-15T03:12:41;96517.00;;;8.50
15680;BMP180;15488;48.114;11.532;2023-02-15T03:15:12;96521.00;;;8.50
15680;BMP180;15488;48.114;11.532;2023-02-15T03:17:44;96515.00;;;8.50
15680;BMP180;15488;48.114;11.532;2023-02-15T03:20:18;96524.00;;;8.50
15680;BMP180;15488;48.114;11.532;2023-02-15T03:22:50;96519.00;;;8.40
15680;BMP180;15488;48.114;11.532;2023-02-15T03:25:22;96514.00;;;8.50
15680;BMP180;15488;48.114;11.532;2023-02-15T03:27:54;96521.00;;;8.40
15680;BMP180;15488;48.114;11.532;2023-02-15T03:30:23;96515.00;;;8.40
15680;BMP180;15488;48.114;11.532;2023-02-15T03:32:52;96503.00;;;8.40
15680;BMP180;15488;48.114;11.532;2023-02-15T03:35:23;96505.00;;;8.40
15680;BMP180;15488;48.114;11.532;2023-02-15T03:37:54;96502.00;;;8.40
15680;BMP180;15488;48.114;11.532;2023-02-15T03:40:26;96509.00;;;8.40
15680;BMP180;15488;48.114;11.532;2023-02-15T03:43:14;96512.00;;;8.40
15680;BMP180;15488;48.114;11.532;2023-02-15T03:45:48;96511.00;;;8.30
15680;BMP180;15488;48.114;11.532;2023-02-15T03:48:24;96520.00;;;8.30
15680;BMP180;15488;48.114;11.532;2023-02-15T03:50:57;96521.00;;;8.30
15680;BMP180;15488;48.114;11.532;2023-02-15T03:53:46;96518.00;;;8.30
15680;BMP180;15488;48.114;11.532;2023-02-15T03:56:15;96522.00;;;8.30
15680;BMP180;15488;48.114;11.532;2023-02-15T03:58:42;96516.00;;;8.20
15680;BMP180;15488;48.114;11.532;2023-02-15T04:01:33;96519.00;;;8.20
15680;BMP180;15488;48.114;11.532;2023-02-15T04:04:30;96509.00;;;8.20
15680;BMP180;15488;48.114;11.532;2023-02-15T04:07:01;96514.00;;;8.20
15680;BMP180;15488;48.114;11.532;2023-02-15T04:09:28;96517.00;;;8.20
15680;BMP180;15488;48.114;11.532;2023-02-15T04:12:12;96523.00;;;8.20
15680;BMP180;15488;48.114;11.532;2023-02-15T04:14:40;96520.00;;;8.20
15680;BMP180;15488;48.114;11.532;2023-02-15T04:17:25;96520.00;;;8.20
15680;BMP180;15488;48.114;11.532;2023-02-15T04:19:52;96517.00;;;8.20
15680;BMP180;15488;48.114;11.532;2023-02-15T04:22:39;96524.00;;;8.20
15680;BMP180;15488;48.114;11.532;2023-02-15T04:25:23;96523.00;;;8.20
15680;BMP180;15488;48.114;11.532;2023-02-15T04:27:52;96522.00;;;8.20
15680;BMP180;15488;48.114;11.532;2023-02-15T04:30:22;96524.00;;;8.20
15680;BMP180;15488;48.114;11.532;2023-02-15T04:32:50;96528.00;;;8.20
15680;BMP180;15488;48.114;11.532;2023-02-15T04:35:18;96524.00;;;8.20
15680;BMP180;15488;48.114;11.532;2023-02-15T04:37:47;96534.00;;;8.20
15680;BMP180;15488;48.114;11.532;2023-02-15T04:40:17;96530.00;;;8.20
15680;BMP180;15488;48.114;11.532;2023-02-15T04:42:46;96522.00;;;8.20
15680;BMP180;15488;48.114;11.532;2023-02-15T04:45:14;96521.00;;;8.20
15680;BMP180;15488;48.114;11.532;2023-02-15T04:47:41;96520.00;;;8.20
15680;BMP180;15488;48.114;11.532;2023-02-15T04:50:10;96512.00;;;8.20
15680;BMP180;15488;48.114;11.532;2023-02-15T04:52:37;96516.00;;;8.30
15680;BMP180;15488;48.114;11.532;2023-02-15T04:55:07;96517.00;;;8.30
15680;BMP180;15488;48.114;11.532;2023-02-15T04:57:34;96517.00;;;8.30
15680;BMP180;15488;48.114;11.532;2023-02-15T05:00:02;96521.00;;;8.30
15680;BMP180;15488;48.114;11.532;2023-02-15T05:02:29;96517.00;;;8.30
15680;BMP180;15488;48.114;11.532;2023-02-15T05:04:57;96514.00;;;8.30
15680;BMP180;15488;48.114;11.532;2023-02-15T05:07:24;96521.00;;;8.30
15680;BMP180;15488;48.114;11.532;2023-02-15T05:09:52;96522.00;;;8.30
15680;BMP180;15488;48.114;11.532;2023-02-15T05:12:20;96529.00;;;8.30
15680;BMP180;15488;48.114;11.532;2023-02-15T05:14:48;96519.00;;;8.30
15680;BMP180;15488;48.114;11.532;2023-02-15T05:17:15;96522.00;;;8.30
15680;BMP180;15488;48.114;11.532;2023-02-15T05:19:43;96527.00;;;8.30
15680;BMP180;15488;48.114;11.532;2023-02-15T05:22:10;96518.00;;;8.30
15680;BMP180;15488;48.114;11.532;2023-02-15T05:24:37;96515.00;;;8.30
15680;BMP180;15488;48.114;11.532;2023-02-15T05:27:23;96520.00;;;8.30
15680;BMP180;15488;48.114;11.532;2023-02-15T05:30:09;96521.00;;;8.20
15680;BMP180;15488;48.114;11.532;2023-02-15T05:32:37;96528.00;;;8.20
15680;BMP180;15488;48.114;11.532;2023-02-15T05:35:05;96534.00;;;8.20
15680;BMP180;15488;48.114;11.532;2023-02-15T05:37:33;96538.00;;;8.20
15680;BMP180;15488;48.114;11.532;2023-02-15T05:40:01;96529.00;;;8.20
15680;BMP180;15488;48.114;11.532;2023-02-15T05:42:29;96530.00;;;8.20
15680;BMP180;15488;48.114;11.532;2023-02-15T05:44:57;96525.00;;;8.20
15680;BMP180;15488;48.114;11.532;2023-02-15T05:47:24;96530.00;;;8.20
15680;BMP180;15488;48.114;11.532;2023-02-15T05:49:52;96527.00;;;8.20
15680;BMP180;15488;48.114;11.532;2023-02-15T05:52:19;96527.00;;;8.20
15680;BMP180;15488;48.114;11.532;2023-02-15T05:54:47;96521.00;;;8.30
15680;BMP180;15488;48.114;11.532;2023-02-15T05:57:15;96532.00;;;8.30
15680;BMP180;15488;48.114;11.532;2023-02-15T05:59:43;96536.00;;;8.30
15680;BMP180;15488;48.114;11.532;2023-02-15T06:02:11;96537.00;;;8.30
15680;BMP180;15488;48.114;11.532;2023-02-15T06:04:39;96532.00;;;8.30
15680;BMP180;15488;48.114;11.532;2023-02-15T06:07:06;96534.00;;;8.30
15680;BMP180;15488;48.114;11.532;2023-02-15T06:09:37;96536.00;;;8.20
15680;BMP180;15488;48.114;11.532;2023-02-15T06:12:04;96539.00;;;8.20
15680;BMP180;15488;48.114;11.532;2023-02-15T06:14:32;96535.00;;;8.20
15680;BMP180;15488;48.114;11.532;2023-02-15T06:17:01;96530.00;;;8.10
15680;BMP180;15488;48.114;11.532;2023-02-15T06:19:28;96531.00;;;8.10
15680;BMP180;15488;48.114;11.532;2023-02-15T06:21:56;96540.00;;;8.10
15680;BMP180;15488;48.114;11.532;2023-02-15T06:24:24;96532.00;;;8.10
15680;BMP180;15488;48.114;11.532;2023-02-15T06:26:51;96535.00;;;8.10
15680;BMP180;15488;48.114;11.532;2023-02-15T06:29:19;96539.00;;;8.10
15680;BMP180;15488;48.114;11.532;2023-02-15T06:31:46;96544.00;;;8.20
15680;BMP180;15488;48.114;11.532;2023-02-15T06:34:15;96541.00;;;8.10
15680;BMP180;15488;48.114;11.532;2023-02-15T06:36:43;96542.00;;;8.10
15680;BMP180;15488;48.114;11.532;2023-02-15T06:39:10;96550.00;;;8.20
15680;BMP180;15488;48.114;11.532;2023-02-15T06:41:38;96545.00;;;8.10
15680;BMP180;15488;48.114;11.532;2023-02-15T06:44:06;96540.00;;;8.20
15680;BMP180;15488;48.114;11.532;2023-02-15T06:46:33;96543.00;;;8.20
15680;BMP180;15488;48.114;11.532;2023-02-15T06:49:00;96547.00;;;8.20
15680;BMP180;15488;48.114;11.532;2023-02-15T06:51:29;96550.00;;;8.20
15680;BMP180;15488;48.114;11.532;2023-02-15T06:53:57;96548.00;;;8.20
15680;BMP180;15488;48.114;11.532;2023-02-15T06:56:24;96560.00;;;8.20
15680;BMP180;15488;48.114;11.532;2023-02-15T06:58:52;96555.00;;;8.20
15680;BMP180;15488;48.114;11.532;2023-02-15T07:01:21;96552.00;;;8.20
15680;BMP180;15488;48.114;11.532;2023-02-15T07:03:49;96557.00;;;8.20
15680;BMP180;15488;48.114;11.532;2023-02-15T07:06:16;96556.00;;;8.20
15680;BMP180;15488;48.114;11.532;2023-02-15T07:08:45;96560.00;;;8.20
15680;BMP180;15488;48.114;11.532;2023-02-15T07:11:12;96549.00;;;8.30
15680;BMP180;15488;48.114;11.532;2023-02-15T07:13:57;96553.00;;;8.30
15680;BMP180;15488;48.114;11.532;2023-02-15T07:16:25;96564.00;;;8.30
15680;BMP180;15488;48.114;11.532;2023-02-15T07:18:52;96558.00;;;8.30
15680;BMP180;15488;48.114;11.532;2023-02-15T07:21:20;96562.00;;;8.30
15680;BMP180;15488;48.114;11.532;2023-02-15T07:23:48;96555.00;;;8.30
15680;BMP180;15488;48.114;11.532;2023-02-15T07:26:16;96553.00;;;8.30
15680;BMP180;15488;48.114;11.532;2023-02-15T07:28:43;96559.00;;;8.30
15680;BMP180;15488;48.114;11.532;2023-02-15T07:31:11;96553.00;;;8.40
15680;BMP180;15488;48.114;11.532;2023-02-15T07:33:38;96561.00;;;8.40
15680;BMP180;15488;48.114;11.532;2023-02-15T07:36:06;96554.00;;;8.40
15680;BMP180;15488;48.114;11.532;2023-02-15T07:38:37;96546.00;;;8.40
15680;BMP180;15488;48.114;11.532;2023-02-15T07:41:08;96544.00;;;8.40
15680;BMP180;15488;48.114;11.532;2023-02-15T07:43:37;96545.00;;;8.40
15680;BMP180;15488;48.114;11.532;2023-02-15T07:46:06;96550.00;;;8.50
15680;BMP180;15488;48.114;11.532;2023-02-15T07:48:35;96553.00;;;8.50
15680;BMP180;15488;48.114;11.532;2023-02-15T07:51:04;96550.00;;;8.50
15680;BMP180;15488;48.114;11.532;2023-02-15T07:53:32;96541.00;;;8.50
15680;BMP180;15488;48.114;11.532;2023-02-15T07:56:00;96541.00;;;8.60
15680;BMP180;15488;48.114;11.532;2023-02-15T07:58:29;96535.00;;;8.60
15680;BMP180;15488;48.114;11.532;2023-02-15T08:01:10;96526.00;;;8.60
15680;BMP180;15488;48.114;11.532;2023-02-15T08:03:38;96541.00;;;8.60
15680;BMP180;15488;48.114;11.532;2023-02-15T08:06:06;96530.00;;;8.70
15680;BMP180;15488;48.114;11.532;2023-02-15T08:08:34;96532.00;;;8.70
15680;BMP180;15488;48.114;11.532;2023-02-15T08:11:03;96532.00;;;8.80
15680;BMP180;15488;48.114;11.532;2023-02-15T08:13:51;96530.00;;;8.80
15680;BMP180;15488;48.114;11.532;2023-02-15T08:16:23;96535.00;;;8.80
15680;BMP180;15488;48.114;11.532;2023-02-15T08:18:51;96534.00;;;8.80
15680;BMP180;15488;48.114;11.532;2023-02-15T08:21:19;96537.00;;;8.80
15680;BMP180;15488;48.114;11.532;2023-02-15T08:23:47;96533.00;;;8.80
15680;BMP180;15488;48.114;11.532;2023-02-15T08:26:14;96535.00;;;8.80
15680;BMP180;15488;48.114;11.532;2023-02-15T08:28:43;96536.00;;;8.80
15680;BMP180;15488;48.114;11.532;2023-02-15T08:31:12;96542.00;;;8.80
15680;BMP180;15488;48.114;11.532;2023-02-15T08:33:42;96531.00;;;8.80
15680;BMP180;15488;48.114;11.532;2023-02-15T08:36:12;96527.00;;;8.80
15680;BMP180;15488;48.114;11.532;2023-02-15T08:38:40;96533.00;;;8.80
15680;BMP180;15488;48.114;11.532;2023-02-15T08:41:12;96532.00;;;8.80
15680;BMP180;15488;48.114;11.532;2023-02-15T08:43:40;96531.00;;;8.90
15680;BMP180;15488;48.114;11.532;2023-02-15T08:46:09;96524.00;;;8.90
15680;BMP180;15488;48.114;11.532;2023-02-15T08:48:38;96525.00;;;8.90
15680;BMP180;15488;48.114;11.532;2023-02-15T08:51:08;96528.00;;;9.00
15680;BMP180;15488;48.114;11.532;2023-02-15T08:53:37;96528.00;;;9.00
15680;BMP180;15488;48.114;11.532;2023-02-15T08:56:05;96530.00;;;9.10
15680;BMP180;15488;48.114;11.532;2023-02-15T08:58:35;96538.00;;;9.10
15680;BMP180;15488;48.114;11.532;2023-02-15T09:01:09;96531.00;;;9.10
15680;BMP180;15488;48.114;11.532;2023-02-15T09:03:41;96531.00;;;9.20
15680;BMP180;15488;48.114;11.532;2023-02-15T09:06:09;96523.00;;;9.20
15680;BMP180;15488;48.114;11.532;2023-02-15T09:08:37;96534.00;;;9.20
15680;BMP180;15488;48.114;11.532;2023-02-15T09:11:07;96520.00;;;9.20
15680;BMP180;15488;48.114;11.532;2023-02-15T09:13:35;96524.00;;;9.20
15680;BMP180;15488;48.114;11.532;2023-02-15T09:16:05;96528.00;;;9.20
15680;BMP180;15488;48.114;11.532;2023-02-15T09:18:35;96524.00;;;9.20
15680;BMP180;15488;48.114;11.532;2023-02-15T09:21:09;96526.00;;;9.20
15680;BMP180;15488;48.114;11.532;2023-02-15T09:23:40;96517.00;;;9.20
15680;BMP180;15488;48.114;11.532;2023-02-15T09:26:09;96514.00;;;9.20
15680;BMP180;15488;48.114;11.532;2023-02-15T09:28:38;96525.00;;;9.30
15680;BMP180;15488;48.114;11.532;2023-02-15T09:31:09;96519.00;;;9.30
15680;BMP180;15488;48.114;11.532;2023-02-15T09:33:38;96523.00;;;9.30
15680;BMP180;15488;48.114;11.532;2023-02-15T09:36:15;96506.00;;;9.30
15680;BMP180;15488;48.114;11.532;2023-02-15T09:38:43;96517.00;;;9.40
15680;BMP180;15488;48.114;11.532;2023-02-15T09:41:32;96517.00;;;9.40
15680;BMP180;15488;48.114;11.532;2023-02-15T09:44:12;96515.00;;;9.40
15680;BMP180;15488;48.114;11.532;2023-02-15T09:47:15;96517.00;;;9.40
15680;BMP180;15488;48.114;11.532;2023-02-15T09:49:55;96516.00;;;9.50
15680;BMP180;15488;48.114;11.532;2023-02-15T09:52:35;96520.00;;;9.50
15680;BMP180;15488;48.114;11.532;2023-02-15T09:55:30;96518.00;;;9.50
15680;BMP180;15488;48.114;11.532;2023-02-15T09:58:06;96524.00;;;9.60
15680;BMP180;15488;48.114;11.532;2023-02-15T10:00:41;96519.00;;;9.70
15680;BMP180;15488;48.114;11.532;2023-02-15T10:03:25;96517.00;;;9.70
15680;BMP180;15488;48.114;11.532;2023-02-15T10:06:05;96447.00;;;9.80
15680;BMP180;15488;48.114;11.532;2023-02-15T10:08:55;96516.00;;;9.80
15680;BMP180;15488;48.114;11.532;2023-02-15T10:11:33;96516.00;;;9.90
15680;BMP180;15488;48.114;11.532;2023-02-15T10:14:18;96518.00;;;9.90
15680;BMP180;15488;48.114;11.532;2023-02-15T10:16:56;96515.00;;;10.00
15680;BMP180;15488;48.114;11.532;2023-02-15T10:19:35;96517.00;;;10.10
15680;BMP180;15488;48.114;11.532;2023-02-15T10:22:13;96509.00;;;10.20
15680;BMP180;15488;48.114;11.532;2023-02-15T10:25:09;96505.00;;;10.30
15680;BMP180;15488;48.114;11.532;2023-02-15T10:27:42;96508.00;;;10.30
15680;BMP180;15488;48.114;11.532;2023-02-15T10:30:13;96505.00;;;10.40
15680;BMP180;15488;48.114;11.532;2023-02-15T10:32:50;96498.00;;;10.40
15680;BMP180;15488;48.114;11.532;2023-02-15T10:35:25;96502.00;;;10.50
15680;BMP180;15488;48.114;11.532;2023-02-15T10:38:05;96501.00;;;10.60
15680;BMP180;15488;48.114;11.532;2023-02-15T10:40:44;96497.00;;;10.60
15680;BMP180;15488;48.114;11.532;2023-02-15T10:43:25;96489.00;;;10.70
15680;BMP180;15488;48.114;11.532;2023-02-15T10:46:05;96494.00;;;10.90
15680;BMP180;15488;48.114;11.532;2023-02-15T10:48:44;96486.00;;;10.90
15680;BMP180;15488;48.114;11.532;2023-02-15T10:51:22;96415.00;;;11.00
15680;BMP180;15488;48.114;11.532;2023-02-15T10:54:04;96483.00;;;11.10
15680;BMP180;15488;48.114;11.532;2023-02-15T10:56:38;96473.00;;;11.20
15680;BMP180;15488;48.114;11.532;2023-02-15T10:59:24;96478.00;;;11.20
15680;BMP180;15488;48.114;11.532;2023-02-15T11:01:59;96474.00;;;11.30
15680;BMP180;15488;48.114;11.532;2023-02-15T11:04:45;96462.00;;;11.40
15680;BMP180;15488;48.114;11.532;2023-02-15T11:07:17;96453.00;;;11.50
15680;BMP180;15488;48.114;11.532;2023-02-15T11:09:50;96455.00;;;11.60
15680;BMP180;15488;48.114;11.532;2023-02-15T11:12:24;96456.00;;;11.60
15680;BMP180;15488;48.114;11.532;2023-02-15T11:14:57;96447.00;;;11.70
15680;BMP180;15488;48.114;11.532;2023-02-15T11:17:30;96445.00;;;11.80
15680;BMP180;15488;48.114;11.532;2023-02-15T11:20:08;96449.00;;;11.90
15680;BMP180;15488;48.114;11.532;2023-02-15T11:22:36;96434.00;;;12.00
15680;BMP180;15488;48.114;11.532;2023-02-15T11:25:16;96435.00;;;12.10
15680;BMP180;15488;48.114;11.532;2023-02-15T11:27:47;96423.00;;;12.20
15680;BMP180;15488;48.114;11.532;2023-02-15T11:30:19;96426.00;;;12.30
15680;BMP180;15488;48.114;11.532;2023-02-15T11:32:48;96414.00;;;12.40
15680;BMP180;15488;48.114;11.532;2023-02-15T11:35:22;96419.00;;;12.50
15680;BMP180;15488;48.114;11.532;2023-02-15T11:37:54;96418.00;;;12.60
15680;BMP180;15488;48.114;11.532;2023-02-15T11:40:27;96417.00;;;12.70
15680;BMP180;15488;48.114;11.532;2023-02-15T11:43:03;96408.00;;;12.90
15680;BMP180;15488;48.114;11.532;2023-02-15T11:45:33;96406.00;;;13.00
15680;BMP180;15488;48.114;11.532;2023-02-15T11:48:07;96399.00;;;13.10
15680;BMP180;15488;48.114;11.532;2023-02-15T11:50:37;96392.00;;;13.20
15680;BMP180;15488;48.114;11.532;2023-02-15T11:53:09;96394.00;;;13.30
15680;BMP180;15488;48.114;11.532;2023-02-15T11:55:43;96398.00;;;13.50
15680;BMP180;15488;48.114;11.532;2023-02-15T11:58:21;96387.00;;;13.60
15680;BMP180;15488;48.114;11.532;2023-02-15T12:00:52;96387.00;;;13.80
15680;BMP180;15488;48.114;11.532;2023-02-15T12:03:24;96377.00;;;14.00
15680;BMP180;15488;48.114;11.532;2023-02-15T12:05:58;96377.00;;;14.10
15680;BMP180;15488;48.114;11.532;2023-02-15T12:08:37;96382.00;;;14.10
15680;BMP180;15488;48.114;11.532;2023-02-15T12:11:09;96371.00;;;14.30
15680;BMP180;15488;48.114;11.532;2023-02-15T12:13:54;96374.00;;;14.40
15680;BMP180;15488;48.114;11.532;2023-02-15T12:16:23;96365.00;;;14.50
15680;BMP180;15488;48.114;11.532;2023-02-15T12:18:53;96364.00;;;14.60
15680;BMP180;15488;48.114;11.532;2023-02-15T12:21:28;96364.00;;;14.70
15680;BMP180;15488;48.114;11.532;2023-02-15T12:24:00;96362.00;;;14.80
15680;BMP180;15488;48.114;11.532;2023-02-15T12:26:29;96352.00;;;14.90
15680;BMP180;15488;48.114;11.532;2023-02-15T12:29:00;96349.00;;;15.00
15680;BMP180;15488;48.114;11.532;2023-02-15T12:31:32;96352.00;;;15.10
15680;BMP180;15488;48.114;11.532;2023-02-15T12:34:02;96356.00;;;15.20
15680;BMP180;15488;48.114;11.532;2023-02-15T12:36:38;96336.00;;;15.40
15680;BMP180;15488;48.114;11.532;2023-02-15T12:39:21;96339.00;;;15.60
15680;BMP180;15488;48.114;11.532;2023-02-15T12:42:01;96338.00;;;15.70
15680;BMP180;15488;48.114;11.532;2023-02-15T12:44:32;96333.00;;;15.80
15680;BMP180;15488;48.114;11.532;2023-02-15T12:47:01;96332.00;;;15.90
15680;BMP180;15488;48.114;11.532;2023-02-15T12:49:31;96330.00;;;16.00
15680;BMP180;15488;48.114;11.532;2023-02-15T12:52:00;96336.00;;;16.10
15680;BMP180;15488;48.114;11.532;2023-02-15T12:54:38;96336.00;;;16.20
15680;BMP180;15488;48.114;11.532;2023-02-15T12:57:23;96327.00;;;16.30
15680;BMP180;15488;48.114;11.532;2023-02-15T12:59:55;96320.00;;;16.50
15680;BMP180;15488;48.114;11.532;2023-02-15T13:02:28;96317.00;;;16.70
15680;BMP180;15488;48.114;11.532;2023-02-15T13:04:57;96325.00;;;16.70
15680;BMP180;15488;48.114;11.532;2023-02-15T13:07:32;96314.00;;;16.80
15680;BMP180;15488;48.114;11.532;2023-02-15T13:10:00;96315.00;;;16.80
15680;BMP180;15488;48.114;11.532;2023-02-15T13:12:29;96313.00;;;16.90
15680;BMP180;15488;48.114;11.532;2023-02-15T13:14:59;96309.00;;;17.00
15680;BMP180;15488;48.114;11.532;2023-02-15T13:17:31;96312.00;;;17.10
15680;BMP180;15488;48.114;11.532;2023-02-15T13:20:04;96312.00;;;17.20
15680;BMP180;15488;48.114;11.532;2023-02-15T13:22:37;96309.00;;;17.30
15680;BMP180;15488;48.114;11.532;2023-02-15T13:25:13;96300.00;;;17.40
15680;BMP180;15488;48.114;11.532;2023-02-15T13:27:42;96294.00;;;17.60
15680;BMP180;15488;48.114;11.532;2023-02-15T13:30:28;96293.00;;;17.70
15680;BMP180;15488;48.114;11.532;2023-02-15T13:33:02;96305.00;;;17.80
15680;BMP180;15488;48.114;11.532;2023-02-15T13:35:37;96290.00;;;17.90
15680;BMP180;15488;48.114;11.532;2023-02-15T13:38:21;96291.00;;;18.10
15680;BMP180;15488;48.114;11.532;2023-02-15T13:40:55;96291.00;;;18.20
15680;BMP180;15488;48.114;11.532;2023-02-15T13:43:40;96289.00;;;18.40
15680;BMP180;15488;48.114;11.532;2023-02-15T13:46:19;96296.00;;;18.50
15680;BMP180;15488;48.114;11.532;2023-02-15T13:48:56;96294.00;;;18.70
15680;BMP180;15488;48.114;11.532;2023-02-15T13:51:34;96291.00;;;18.80
15680;BMP180;15488;48.114;11.532;2023-02-15T13:57:10;96292.00;;;19.10
15680;BMP180;15488;48.114;11.532;2023-02-15T13:59:51;96297.00;;;19.30
15680;BMP180;15488;48.114;11.532;2023-02-15T14:02:38;96294.00;;;19.50
15680;BMP180;15488;48.114;11.532;2023-02-15T14:05:28;96295.00;;;19.80
15680;BMP180;15488;48.114;11.532;2023-02-15T14:08:04;96290.00;;;20.10
15680;BMP180;15488;48.114;11.532;2023-02-15T14:10:45;96289.00;;;20.60
15680;BMP180;15488;48.114;11.532;2023-02-15T14:13:52;96291.00;;;21.40
15680;BMP180;15488;48.114;11.532;2023-02-15T14:16:31;96293.00;;;22.00
15680;BMP180;15488;48.114;11.532;2023-02-15T14:19:09;96297.00;;;22.60
15680;BMP180;15488;48.114;11.532;2023-02-15T14:21:45;96293.00;;;23.20
15680;BMP180;15488;48.114;11.532;2023-02-15T14:24:23;96291.00;;;23.60
15680;BMP180;15488;48.114;11.532;2023-02-15T14:26:59;96291.00;;;24.10
15680;BMP180;15488;48.114;11.532;2023-02-15T14:29:43;96291.00;;;24.40
15680;BMP180;15488;48.114;11.532;2023-02-15T14:32:19;96288.00;;;24.80
15680;BMP180;15488;48.114;11.532;2023-02-15T14:34:50;96287.00;;;25.00
15680;BMP180;15488;48.114;11.532;2023-02-15T14:37:26;96277.00;;;25.20
15680;BMP180;15488;48.114;11.532;2023-02-15T14:39:59;96284.00;;;25.40